createdAt,value
2023-07-17T00:01:00.005Z,78.93
2023-07-17T00:03:27.469Z,79.18
2023-07-17T00:05:57.703Z,79.16
2023-07-17T00:08:25.120Z,79.35
2023-07-17T00:10:52.644Z,79.38
2023-07-17T00:13:20.293Z,79.71
2023-07-17T00:15:47.619Z,79.62
2023-07-17T00:18:15.880Z,79.59
2023-07-17T00:20:43.460Z,79.91
2023-07-17T00:23:12.781Z,79.85
2023-07-17T00:25:40.246Z,79.91
2023-07-17T00:28:07.724Z,79.76
2023-07-17T00:30:35.235Z,79.55
2023-07-17T00:33:02.701Z,80.05
2023-07-17T00:35:30.488Z,80.19
2023-07-17T00:37:57.765Z,79.86
2023-07-17T00:40:26.538Z,80.14
2023-07-17T00:42:58.136Z,80.10
2023-07-17T00:45:25.693Z,80.26
2023-07-17T00:47:53.348Z,80.32
2023-07-17T00:50:21.005Z,79.82
2023-07-17T00:52:48.428Z,80.19
2023-07-17T00:55:16.758Z,80.06
2023-07-17T00:57:45.881Z,80.15
2023-07-17T01:00:14.619Z,80.52
2023-07-17T01:02:45.166Z,80.20
2023-07-17T01:05:12.565Z,80.15
2023-07-17T01:07:41.056Z,79.90
2023-07-17T01:10:09.655Z,80.04
2023-07-17T01:12:38.061Z,79.81
2023-07-17T01:15:11.216Z,79.83
2023-07-17T01:17:38.938Z,80.05
2023-07-17T01:20:10.909Z,79.82
2023-07-17T01:22:41.465Z,80.20
2023-07-17T01:25:10.811Z,80.43
2023-07-17T01:27:39.874Z,80.19
2023-07-17T01:30:08.694Z,80.37
2023-07-17T01:32:36.139Z,80.14
2023-07-17T01:35:07.054Z,80.05
2023-07-17T01:37:34.514Z,79.88
2023-07-17T01:40:04.492Z,79.83
2023-07-17T01:42:33.472Z,79.59
2023-07-17T01:45:01.269Z,79.90
2023-07-17T01:47:32.870Z,80.06
2023-07-17T01:50:00.495Z,79.98
2023-07-17T01:52:27.948Z,79.86
2023-07-17T01:54:55.340Z,79.87
2023-07-17T01:57:24.735Z,80.03
2023-07-17T01:59:53.424Z,79.69
2023-07-17T02:02:21.141Z,79.34
2023-07-17T02:04:48.936Z,79.55
2023-07-17T02:07:16.344Z,80.13
2023-07-17T02:09:43.797Z,80.30
2023-07-17T02:12:12.584Z,79.89
2023-07-17T02:14:40.304Z,79.65
2023-07-17T02:17:08.987Z,79.79
2023-07-17T02:19:36.481Z,79.74
2023-07-17T02:22:03.996Z,79.59
2023-07-17T02:24:31.535Z,79.50
2023-07-17T02:27:00.215Z,79.29
2023-07-17T02:29:27.518Z,79.47
2023-07-17T02:31:55.078Z,79.57
2023-07-17T02:34:24.061Z,79.42
2023-07-17T02:36:53.565Z,79.51
2023-07-17T02:39:22.207Z,79.51
2023-07-17T02:41:49.678Z,79.56
2023-07-17T02:44:17.066Z,79.37
2023-07-17T02:46:44.316Z,79.39
2023-07-17T02:49:15.187Z,79.46
2023-07-17T02:51:44.155Z,79.61
2023-07-17T02:54:11.532Z,79.04
2023-07-17T02:56:38.834Z,79.28
2023-07-17T02:59:06.459Z,79.10
2023-07-17T03:01:33.943Z,79.16
2023-07-17T03:04:02.799Z,79.04
2023-07-17T03:06:30.462Z,78.80
2023-07-17T03:08:59.107Z,78.82
2023-07-17T03:11:26.490Z,78.76
2023-07-17T03:13:53.953Z,78.68
2023-07-17T03:16:21.877Z,78.51
2023-07-17T03:18:49.532Z,78.61
2023-07-17T03:21:17.377Z,78.56
2023-07-17T03:23:44.961Z,78.28
2023-07-17T03:26:13.712Z,77.94
2023-07-17T03:28:41.064Z,78.39
2023-07-17T03:31:10.781Z,78.12
2023-07-17T03:33:40.601Z,77.97
2023-07-17T03:36:08.144Z,77.88
2023-07-17T03:38:35.671Z,78.00
2023-07-17T03:41:04.181Z,77.88
2023-07-17T03:43:32.935Z,77.63
2023-07-17T03:46:00.415Z,77.42
2023-07-17T03:48:28.344Z,77.15
2023-07-17T03:51:00.860Z,77.20
2023-07-17T03:53:30.870Z,77.12
2023-07-17T03:55:58.238Z,76.83
2023-07-17T03:58:25.532Z,76.50
2023-07-17T04:00:55.130Z,76.33
2023-07-17T04:03:24.181Z,76.26
2023-07-17T04:05:51.858Z,76.09
2023-07-17T04:08:19.142Z,75.93
2023-07-17T04:10:46.632Z,75.61
2023-07-17T04:13:14.786Z,75.37
2023-07-17T04:15:43.141Z,75.08
2023-07-17T04:18:15.728Z,74.73
2023-07-17T04:20:43.735Z,74.51
2023-07-17T04:23:13.137Z,74.36
2023-07-17T04:25:45.924Z,74.02
2023-07-17T04:28:13.315Z,73.84
2023-07-17T04:30:42.227Z,73.53
2023-07-17T04:33:12.196Z,72.88
2023-07-17T04:35:41.203Z,72.71
2023-07-17T04:38:09.107Z,72.17
2023-07-17T04:40:36.477Z,71.47
2023-07-17T04:43:04.570Z,70.96
2023-07-17T04:45:34.123Z,70.37
2023-07-17T04:48:07.183Z,69.77
2023-07-17T04:50:34.767Z,69.68
2023-07-17T04:53:03.420Z,68.94
2023-07-17T04:55:30.958Z,68.51
2023-07-17T04:57:58.797Z,68.20
2023-07-17T05:00:28.563Z,68.09
2023-07-17T05:02:58.224Z,67.70
2023-07-17T05:05:27.590Z,67.04
2023-07-17T05:07:55.781Z,66.67
2023-07-17T05:10:25.412Z,66.67
2023-07-17T05:12:54.360Z,65.79
2023-07-17T05:15:22.269Z,65.76
2023-07-17T05:17:50.092Z,65.10
2023-07-17T05:20:17.756Z,65.33
2023-07-17T05:22:45.313Z,64.96
2023-07-17T05:25:14.259Z,64.31
2023-07-17T05:27:43.445Z,64.42
2023-07-17T05:30:12.541Z,64.55
2023-07-17T05:32:39.992Z,64.68
2023-07-17T05:35:08.619Z,65.00
2023-07-17T05:37:36.823Z,64.31
2023-07-17T05:40:06.912Z,64.52
2023-07-17T05:42:34.321Z,64.50
2023-07-17T05:45:04.976Z,64.26
2023-07-17T05:47:32.888Z,63.91
2023-07-17T05:50:00.560Z,63.49
2023-07-17T05:52:27.958Z,63.04
2023-07-17T05:54:56.495Z,62.55
2023-07-17T05:57:24.415Z,62.42
2023-07-17T05:59:52.077Z,61.89
2023-07-17T06:02:21.037Z,61.88
2023-07-17T06:04:48.554Z,61.66
2023-07-17T06:07:15.988Z,60.88
2023-07-17T06:09:43.287Z,60.82
2023-07-17T06:12:10.583Z,60.30
2023-07-17T06:14:38.102Z,59.45
2023-07-17T06:17:06.128Z,59.65
2023-07-17T06:19:34.841Z,58.79
2023-07-17T06:22:02.171Z,58.60
2023-07-17T06:24:29.601Z,58.13
2023-07-17T06:26:57.468Z,56.82
2023-07-17T06:29:25.002Z,56.99
2023-07-17T06:31:52.350Z,57.10
2023-07-17T06:34:22.481Z,56.91
2023-07-17T06:36:51.845Z,56.26
2023-07-17T06:39:20.788Z,55.85
2023-07-17T06:41:48.614Z,55.21
2023-07-17T06:44:17.219Z,54.24
2023-07-17T06:46:44.697Z,53.34
2023-07-17T06:49:12.374Z,52.47
2023-07-17T06:51:39.739Z,51.78
2023-07-17T06:54:08.495Z,50.85
2023-07-17T06:56:35.974Z,50.27
2023-07-17T06:59:03.288Z,49.50
2023-07-17T07:01:30.623Z,48.51
2023-07-17T07:03:58.185Z,48.15
2023-07-17T07:06:25.755Z,47.63
2023-07-17T07:08:53.075Z,46.68
2023-07-17T07:11:22.016Z,45.59
2023-07-17T07:13:49.282Z,45.66
2023-07-17T07:16:17.322Z,45.01
2023-07-17T07:18:45.450Z,45.05
2023-07-17T07:21:12.802Z,44.86
2023-07-17T07:23:40.268Z,44.13
2023-07-17T07:26:07.582Z,43.89
2023-07-17T07:28:36.295Z,43.80
2023-07-17T07:31:03.832Z,43.63
2023-07-17T07:33:31.308Z,43.43
2023-07-17T07:35:58.721Z,42.39
2023-07-17T07:38:26.048Z,42.77
2023-07-17T07:40:53.446Z,42.53
2023-07-17T07:43:20.706Z,42.03
2023-07-17T07:45:49.938Z,42.18
2023-07-17T07:48:17.595Z,42.16
2023-07-17T07:50:45.262Z,41.20
2023-07-17T07:53:12.642Z,40.68
2023-07-17T07:55:40.000Z,41.00
2023-07-17T07:58:07.311Z,41.36
2023-07-17T08:00:34.693Z,40.79
2023-07-17T08:03:03.511Z,40.84
2023-07-17T08:05:30.888Z,41.70
2023-07-17T08:07:58.245Z,40.57
2023-07-17T08:10:25.714Z,40.95
2023-07-17T08:12:53.000Z,41.46
2023-07-17T08:15:20.444Z,41.49
2023-07-17T08:17:47.816Z,41.06
2023-07-17T08:20:16.748Z,40.78
2023-07-17T08:22:44.307Z,40.44
2023-07-17T08:25:11.657Z,40.86
2023-07-17T08:27:38.948Z,40.40
2023-07-17T08:30:08.350Z,40.39
2023-07-17T08:32:35.990Z,40.47
2023-07-17T08:35:04.528Z,40.92
2023-07-17T08:37:33.419Z,40.73
2023-07-17T08:40:01.062Z,40.91
2023-07-17T08:42:31.000Z,40.65
2023-07-17T08:44:59.373Z,40.47
2023-07-17T08:47:27.842Z,40.77
2023-07-17T08:49:56.757Z,40.48
2023-07-17T08:52:24.152Z,40.24
2023-07-17T08:54:53.219Z,39.99
2023-07-17T08:57:21.407Z,39.59
2023-07-17T08:59:48.772Z,40.30
2023-07-17T09:02:16.238Z,40.33
2023-07-17T09:04:43.662Z,40.11
2023-07-17T09:07:11.313Z,39.36
2023-07-17T09:09:38.795Z,39.39
2023-07-17T09:12:12.741Z,39.54
2023-07-17T09:14:40.908Z,39.89
2023-07-17T09:17:11.382Z,40.03
2023-07-17T09:19:39.557Z,39.74
2023-07-17T09:22:08.700Z,39.46
2023-07-17T09:24:37.971Z,39.10
2023-07-17T09:27:08.037Z,39.62
2023-07-17T09:29:42.167Z,38.99
2023-07-17T09:32:17.264Z,38.93
2023-07-17T09:34:44.576Z,38.16
2023-07-17T09:37:11.970Z,38.23
2023-07-17T09:39:39.856Z,37.65
2023-07-17T09:42:23.515Z,37.86
2023-07-17T09:44:53.855Z,37.20
2023-07-17T09:47:21.928Z,37.30
2023-07-17T09:49:51.596Z,37.50
2023-07-17T09:52:19.614Z,37.73
2023-07-17T09:54:50.300Z,37.50
2023-07-17T09:57:26.991Z,38.44
2023-07-17T09:59:58.924Z,38.84
2023-07-17T10:02:31.578Z,38.49
2023-07-17T10:05:01.364Z,38.72
2023-07-17T10:07:32.015Z,38.88
2023-07-17T10:10:00.349Z,39.03
2023-07-17T10:12:28.509Z,38.96
2023-07-17T10:14:59.093Z,38.22
2023-07-17T10:17:31.079Z,39.01
2023-07-17T10:19:59.949Z,39.07
2023-07-17T10:22:35.121Z,38.63
2023-07-17T10:25:24.133Z,38.91
2023-07-17T10:27:56.314Z,38.52
2023-07-17T10:30:27.895Z,38.41
2023-07-17T10:33:08.698Z,37.80
2023-07-17T10:35:50.436Z,37.03
2023-07-17T10:38:19.940Z,37.32
2023-07-17T10:40:47.622Z,36.38
2023-07-17T10:43:17.629Z,36.34
2023-07-17T10:45:48.717Z,36.43
2023-07-17T10:48:19.040Z,36.90
2023-07-17T10:50:51.051Z,37.68
2023-07-17T10:53:18.367Z,37.28
2023-07-17T10:55:47.598Z,37.49
2023-07-17T10:58:15.714Z,37.04
2023-07-17T11:00:43.802Z,36.65
2023-07-17T11:03:15.191Z,36.76
2023-07-17T11:05:43.603Z,36.50
2023-07-17T11:08:13.368Z,35.99
2023-07-17T11:10:42.933Z,34.82
2023-07-17T11:13:11.526Z,34.90
2023-07-17T11:15:39.366Z,34.79
2023-07-17T11:18:09.084Z,35.13
2023-07-17T11:20:38.559Z,34.66
2023-07-17T11:23:10.842Z,34.93
2023-07-17T11:25:38.890Z,34.78
2023-07-17T11:28:06.501Z,34.68
2023-07-17T11:30:33.975Z,34.66
2023-07-17T11:33:02.972Z,34.71
2023-07-17T11:35:45.600Z,34.36
2023-07-17T11:38:15.590Z,34.83
2023-07-17T11:40:53.642Z,34.59
2023-07-17T11:43:26.724Z,34.72
2023-07-17T11:46:02.756Z,34.32
2023-07-17T11:48:31.476Z,34.80
2023-07-17T11:51:03.680Z,34.46
2023-07-17T11:53:31.388Z,34.16
2023-07-17T11:56:02.113Z,33.65
2023-07-17T11:58:31.602Z,33.54
2023-07-17T12:00:59.299Z,33.76
2023-07-17T12:03:26.658Z,33.40
2023-07-17T12:05:54.382Z,33.48
2023-07-17T12:08:23.426Z,32.91
2023-07-17T12:10:50.811Z,32.87
2023-07-17T12:13:18.522Z,32.46
2023-07-17T12:15:45.882Z,32.51
2023-07-17T12:18:13.224Z,32.04
2023-07-17T12:20:40.487Z,31.98
2023-07-17T12:23:08.057Z,31.81
2023-07-17T12:25:40.967Z,32.50
2023-07-17T12:28:08.325Z,32.99
2023-07-17T12:30:35.691Z,32.40
2023-07-17T12:33:03.249Z,32.27
2023-07-17T12:35:30.908Z,32.19
2023-07-17T12:37:58.435Z,32.08
2023-07-17T12:40:26.563Z,31.42
2023-07-17T12:42:55.576Z,30.62
2023-07-17T12:45:22.811Z,30.59
2023-07-17T12:47:50.533Z,29.68
2023-07-17T12:50:18.195Z,29.83
2023-07-17T12:52:45.690Z,30.37
2023-07-17T12:55:13.652Z,30.61
2023-07-17T12:57:41.909Z,31.23
2023-07-17T13:00:13.718Z,31.98
2023-07-17T13:02:42.357Z,32.46
2023-07-17T13:05:13.976Z,32.84
2023-07-17T13:07:41.508Z,33.05
2023-07-17T13:10:09.972Z,33.23
2023-07-17T13:12:47.567Z,33.77
2023-07-17T13:15:19.638Z,34.32
2023-07-17T13:17:47.198Z,33.96
2023-07-17T13:20:15.083Z,34.19
2023-07-17T13:22:42.864Z,33.73
2023-07-17T13:25:10.757Z,33.27
2023-07-17T13:27:38.201Z,32.87
2023-07-17T13:30:06.904Z,31.55
2023-07-17T13:32:35.812Z,31.43
2023-07-17T13:35:03.241Z,31.22
2023-07-17T13:37:31.487Z,32.12
2023-07-17T13:39:59.003Z,31.04
2023-07-17T13:42:27.510Z,30.88
2023-07-17T13:45:00.020Z,30.46
2023-07-17T13:47:27.986Z,30.12
2023-07-17T13:49:57.027Z,30.24
2023-07-17T13:52:24.936Z,30.57
2023-07-17T13:54:52.167Z,30.51
2023-07-17T13:57:19.996Z,29.86
2023-07-17T13:59:53.083Z,29.73
2023-07-17T14:02:21.251Z,29.64
2023-07-17T14:04:48.854Z,29.95
2023-07-17T14:07:17.468Z,29.39
2023-07-17T14:09:44.887Z,30.18
2023-07-17T14:12:12.480Z,29.87
2023-07-17T14:14:39.742Z,29.63
2023-07-17T14:17:07.108Z,29.34
2023-07-17T14:19:34.610Z,29.05
2023-07-17T14:22:01.929Z,29.70
2023-07-17T14:24:30.763Z,29.45
2023-07-17T14:26:58.109Z,29.27
2023-07-17T14:29:25.582Z,29.66
2023-07-17T14:31:53.050Z,29.80
2023-07-17T14:34:28.609Z,29.73
2023-07-17T14:36:55.915Z,29.92
2023-07-17T14:39:23.220Z,29.59
2023-07-17T14:41:51.898Z,29.73
2023-07-17T14:44:19.190Z,29.41
2023-07-17T14:46:46.583Z,29.27
2023-07-17T14:49:14.114Z,29.78
2023-07-17T14:51:41.659Z,29.41
2023-07-17T14:54:09.048Z,29.93
2023-07-17T14:56:36.466Z,29.96
2023-07-17T14:59:05.290Z,29.16
2023-07-17T15:01:32.615Z,29.61
2023-07-17T15:04:00.027Z,29.90
2023-07-17T15:06:27.361Z,30.52
2023-07-17T15:08:54.912Z,31.17
2023-07-17T15:11:25.984Z,31.72
2023-07-17T15:13:54.338Z,31.84
2023-07-17T15:16:23.277Z,32.31
2023-07-17T15:18:50.747Z,32.52
2023-07-17T15:21:18.137Z,32.52
2023-07-17T15:23:45.538Z,32.97
2023-07-17T15:26:13.081Z,33.45
2023-07-17T15:28:40.409Z,33.65
2023-07-17T15:31:13.141Z,34.13
2023-07-17T15:33:42.135Z,34.31
2023-07-17T15:36:09.610Z,34.06
2023-07-17T15:38:36.921Z,34.67
2023-07-17T15:41:04.636Z,34.60
2023-07-17T15:43:33.049Z,35.50
2023-07-17T15:46:00.356Z,35.43
2023-07-17T15:48:27.731Z,35.99
2023-07-17T15:50:56.470Z,36.83
2023-07-17T15:53:25.472Z,36.96
2023-07-17T15:55:53.091Z,37.28
2023-07-17T15:58:20.340Z,37.65
2023-07-17T16:00:47.853Z,37.75
2023-07-17T16:03:15.209Z,37.49
2023-07-17T16:05:42.758Z,38.42
2023-07-17T16:08:11.809Z,38.62
2023-07-17T16:10:39.400Z,38.44
2023-07-17T16:13:06.764Z,38.40
2023-07-17T16:15:34.117Z,38.67
2023-07-17T16:18:01.640Z,39.43
2023-07-17T16:20:29.183Z,39.78
2023-07-17T16:22:56.853Z,39.49
2023-07-17T16:25:25.954Z,39.64
2023-07-17T16:27:53.211Z,40.30
2023-07-17T16:30:21.722Z,40.21
2023-07-17T16:32:49.249Z,40.44
2023-07-17T16:35:16.604Z,41.18
2023-07-17T16:37:43.871Z,41.60
2023-07-17T16:40:12.201Z,41.72
2023-07-17T16:42:42.016Z,41.71
2023-07-17T16:45:10.206Z,42.24
2023-07-17T16:47:37.983Z,41.94
2023-07-17T16:50:06.466Z,42.50
2023-07-17T16:52:34.133Z,42.80
2023-07-17T16:55:01.829Z,42.86
2023-07-17T16:57:33.129Z,42.94
2023-07-17T17:00:04.611Z,43.00
2023-07-17T17:02:35.578Z,43.12
2023-07-17T17:05:06.198Z,43.48
2023-07-17T17:07:33.644Z,44.11
2023-07-17T17:10:01.013Z,44.60
2023-07-17T17:12:29.039Z,45.43
2023-07-17T17:14:56.446Z,45.65
2023-07-17T17:17:25.442Z,46.30
2023-07-17T17:19:53.325Z,46.10
2023-07-17T17:22:21.134Z,47.20
2023-07-17T17:24:48.476Z,47.14
2023-07-17T17:27:15.737Z,47.46
2023-07-17T17:29:43.095Z,47.58
2023-07-17T17:32:10.436Z,47.99
2023-07-17T17:34:39.042Z,48.38
2023-07-17T17:37:06.725Z,48.90
2023-07-17T17:39:34.080Z,48.80
2023-07-17T17:42:01.478Z,48.86
2023-07-17T17:44:28.935Z,49.68
2023-07-17T17:46:56.433Z,49.62
2023-07-17T17:49:23.941Z,49.98
2023-07-17T17:51:52.723Z,50.45
2023-07-17T17:54:20.036Z,50.71
2023-07-17T17:56:47.277Z,51.42
2023-07-17T17:59:14.830Z,51.87
2023-07-17T18:01:42.233Z,52.28
2023-07-17T18:04:09.884Z,53.02
2023-07-17T18:06:37.486Z,53.63
2023-07-17T18:09:06.170Z,54.11
2023-07-17T18:11:37.255Z,54.55
2023-07-17T18:14:10.770Z,55.10
2023-07-17T18:16:39.676Z,55.47
2023-07-17T18:19:08.605Z,55.60
2023-07-17T18:21:36.384Z,56.08
2023-07-17T18:24:07.290Z,56.38
2023-07-17T18:26:34.662Z,56.75
2023-07-17T18:29:02.090Z,57.00
2023-07-17T18:31:29.647Z,57.33
2023-07-17T18:33:57.286Z,57.86
2023-07-17T18:36:25.383Z,57.87
2023-07-17T18:38:52.715Z,57.98
2023-07-17T18:41:21.861Z,58.23
2023-07-17T18:43:52.496Z,58.50
2023-07-17T18:46:20.922Z,58.83
2023-07-17T18:48:49.923Z,58.81
2023-07-17T18:51:17.993Z,59.13
2023-07-17T18:53:45.503Z,58.40
2023-07-17T18:56:13.019Z,58.67
2023-07-17T18:58:42.045Z,59.46
2023-07-17T19:01:09.464Z,59.71
2023-07-17T19:03:37.051Z,59.54
2023-07-17T19:06:05.150Z,59.67
2023-07-17T19:08:32.541Z,60.12
2023-07-17T19:11:02.377Z,60.29
2023-07-17T19:13:29.818Z,60.67
2023-07-17T19:15:59.095Z,60.61
2023-07-17T19:18:26.882Z,60.61
2023-07-17T19:20:54.601Z,61.55
2023-07-17T19:23:22.649Z,61.52
2023-07-17T19:25:49.980Z,61.41
2023-07-17T19:28:17.533Z,61.60
2023-07-17T19:30:47.392Z,61.21
2023-07-17T19:33:16.640Z,61.30
2023-07-17T19:35:44.415Z,61.40
2023-07-17T19:38:11.679Z,61.48
2023-07-17T19:40:39.029Z,62.10
2023-07-17T19:43:06.497Z,62.27
2023-07-17T19:45:33.984Z,62.48
2023-07-17T19:48:01.455Z,62.51
2023-07-17T19:50:31.030Z,62.92
2023-07-17T19:52:58.337Z,62.90
2023-07-17T19:55:25.607Z,62.83
2023-07-17T19:57:53.213Z,62.36
2023-07-17T20:00:20.615Z,62.03
2023-07-17T20:02:48.723Z,63.12
2023-07-17T20:05:16.565Z,63.10
2023-07-17T20:07:45.212Z,63.58
2023-07-17T20:10:12.545Z,63.51
2023-07-17T20:12:39.829Z,63.50
2023-07-17T20:15:08.322Z,64.17
2023-07-17T20:17:37.173Z,64.24
2023-07-17T20:20:06.395Z,64.06
2023-07-17T20:22:39.296Z,63.92
2023-07-17T20:25:09.785Z,64.27
2023-07-17T20:27:41.013Z,63.67
2023-07-17T20:30:09.613Z,63.58
2023-07-17T20:32:37.109Z,63.44
2023-07-17T20:35:20.752Z,63.20
2023-07-17T20:37:52.219Z,63.76
2023-07-17T20:40:21.893Z,63.64
2023-07-17T20:42:49.792Z,63.52
2023-07-17T20:45:18.416Z,63.81
2023-07-17T20:47:46.391Z,63.52
2023-07-17T20:50:14.348Z,63.82
2023-07-17T20:52:45.583Z,63.84
2023-07-17T20:55:17.374Z,64.20
2023-07-17T20:57:46.503Z,63.98
2023-07-17T21:00:14.702Z,63.24
2023-07-17T21:02:42.536Z,63.64
2023-07-17T21:05:10.196Z,63.66
2023-07-17T21:07:38.420Z,63.78
2023-07-17T21:10:06.399Z,63.86
2023-07-17T21:12:35.473Z,64.45
2023-07-17T21:15:04.941Z,64.44
2023-07-17T21:17:33.181Z,64.42
2023-07-17T21:20:00.528Z,64.71
2023-07-17T21:22:27.860Z,64.41
2023-07-17T21:24:55.321Z,65.02
2023-07-17T21:27:22.954Z,64.75
2023-07-17T21:29:50.417Z,64.28
2023-07-17T21:32:19.526Z,64.74
2023-07-17T21:34:46.799Z,64.75
2023-07-17T21:37:14.161Z,64.39
2023-07-17T21:39:44.671Z,64.46
2023-07-17T21:42:12.357Z,64.73
2023-07-17T21:44:39.994Z,64.99
2023-07-17T21:47:07.969Z,64.49
2023-07-17T21:49:36.621Z,65.40
2023-07-17T21:52:04.484Z,65.15
2023-07-17T21:54:32.075Z,65.25
2023-07-17T21:56:59.557Z,65.14
2023-07-17T21:59:26.878Z,64.84
2023-07-17T22:01:54.846Z,65.25
2023-07-17T22:04:22.107Z,65.62
2023-07-17T22:06:50.772Z,65.76
2023-07-17T22:09:18.510Z,65.45
2023-07-17T22:11:46.503Z,66.18
2023-07-17T22:14:14.240Z,66.02
2023-07-17T22:16:41.648Z,66.00
2023-07-17T22:19:09.143Z,65.88
2023-07-17T22:21:36.972Z,66.27
2023-07-17T22:24:06.799Z,66.30
2023-07-17T22:26:34.143Z,66.62
2023-07-17T22:29:01.718Z,66.40
2023-07-17T22:31:29.350Z,67.03
2023-07-17T22:33:57.404Z,67.07
2023-07-17T22:36:25.151Z,66.76
2023-07-17T22:38:52.738Z,67.12
2023-07-17T22:41:21.659Z,67.51
2023-07-17T22:43:49.019Z,67.47
2023-07-17T22:46:16.706Z,67.13
2023-07-17T22:48:44.099Z,67.11
2023-07-17T22:51:11.368Z,67.62
2023-07-17T22:53:38.617Z,67.44
2023-07-17T22:56:05.900Z,67.51
2023-07-17T22:58:37.409Z,68.24
2023-07-17T23:01:04.627Z,67.48
2023-07-17T23:03:33.517Z,67.42
2023-07-17T23:06:01.088Z,67.73
2023-07-17T23:08:28.444Z,68.50
2023-07-17T23:10:55.989Z,68.90
2023-07-17T23:13:23.258Z,68.70
2023-07-17T23:15:52.467Z,68.83
2023-07-17T23:18:20.876Z,68.79
2023-07-17T23:20:48.183Z,69.08
2023-07-17T23:23:16.650Z,69.18
2023-07-17T23:25:45.475Z,69.77
2023-07-17T23:28:13.598Z,70.12
2023-07-17T23:30:41.414Z,70.24
2023-07-17T23:33:10.672Z,70.23
2023-07-17T23:35:39.500Z,69.76
2023-07-17T23:38:06.968Z,70.24
2023-07-17T23:40:34.229Z,70.54
2023-07-17T23:43:04.004Z,70.16
2023-07-17T23:45:32.416Z,69.47
2023-07-17T23:48:01.032Z,68.57
2023-07-17T23:50:30.254Z,68.14
2023-07-17T23:52:57.540Z,67.52
2023-07-17T23:55:24.986Z,67.37
2023-07-17T23:57:52.649Z,67.04
